sensor_id;sensor_type;location;lat;lon;timestamp;P1;durP1;ratioP1;P2;durP2;ratioP2
40162;SDS011;25881;47.462;19.304;2024-01-30T00:01:52;15.33;;;9.13;;
40162;SDS011;25881;47.462;19.304;2024-01-30T00:04:18;16.25;;;9.38;;
40162;SDS011;25881;47.462;19.304;2024-01-30T00:06:44;15.27;;;9.77;;
40162;SDS011;25881;47.462;19.304;2024-01-30T00:09:09;17.42;;;10.18;;
40162;SDS011;25881;47.462;19.304;2024-01-30T00:11:36;18.95;;;10.25;;
40162;SDS011;25881;47.462;19.304;2024-01-30T00:14:01;15.98;;;9.65;;
40162;SDS011;25881;47.462;19.304;2024-01-30T00:16:26;18.47;;;10.43;;
40162;SDS011;25881;47.462;19.304;2024-01-30T00:18:52;15.38;;;9.52;;
40162;SDS011;25881;47.462;19.304;2024-01-30T00:21:17;18.45;;;10.68;;
40162;SDS011;25881;47.462;19.304;2024-01-30T00:23:43;16.45;;;10.40;;
40162;SDS011;25881;47.462;19.304;2024-01-30T00:26:09;19.08;;;10.85;;
40162;SDS011;25881;47.462;19.304;2024-01-30T00:28:34;18.17;;;10.57;;
40162;SDS011;25881;47.462;19.304;2024-01-30T00:30:59;18.33;;;10.07;;
40162;SDS011;25881;47.462;19.304;2024-01-30T00:33:25;18.50;;;11.80;;
40162;SDS011;25881;47.462;19.304;2024-01-30T00:35:51;18.92;;;11.70;;
40162;SDS011;25881;47.462;19.304;2024-01-30T00:38:16;15.63;;;10.57;;
40162;SDS011;25881;47.462;19.304;2024-01-30T00:40:41;22.17;;;11.07;;
40162;SDS011;25881;47.462;19.304;2024-01-30T00:43:07;20.37;;;11.37;;
40162;SDS011;25881;47.462;19.304;2024-01-30T00:45:32;24.47;;;11.57;;
40162;SDS011;25881;47.462;19.304;2024-01-30T00:47:57;19.50;;;11.80;;
40162;SDS011;25881;47.462;19.304;2024-01-30T00:50:23;18.63;;;11.18;;
40162;SDS011;25881;47.462;19.304;2024-01-30T00:52:48;21.40;;;11.40;;
40162;SDS011;25881;47.462;19.304;2024-01-30T00:55:13;19.67;;;11.15;;
40162;SDS011;25881;47.462;19.304;2024-01-30T00:57:39;16.55;;;10.70;;
40162;SDS011;25881;47.462;19.304;2024-01-30T01:00:05;19.27;;;10.77;;
40162;SDS011;25881;47.462;19.304;2024-01-30T01:02:33;20.77;;;11.63;;
40162;SDS011;25881;47.462;19.304;2024-01-30T01:04:59;21.58;;;11.05;;
40162;SDS011;25881;47.462;19.304;2024-01-30T01:07:24;20.77;;;10.70;;
40162;SDS011;25881;47.462;19.304;2024-01-30T01:09:49;19.77;;;11.05;;
40162;SDS011;25881;47.462;19.304;2024-01-30T01:12:14;22.73;;;12.13;;
40162;SDS011;25881;47.462;19.304;2024-01-30T01:14:40;19.80;;;11.38;;
40162;SDS011;25881;47.462;19.304;2024-01-30T01:17:07;19.23;;;11.85;;
40162;SDS011;25881;47.462;19.304;2024-01-30T01:19:32;19.60;;;11.90;;
40162;SDS011;25881;47.462;19.304;2024-01-30T01:21:58;22.37;;;12.07;;
40162;SDS011;25881;47.462;19.304;2024-01-30T01:24:23;20.92;;;11.90;;
40162;SDS011;25881;47.462;19.304;2024-01-30T01:26:49;19.98;;;11.57;;
40162;SDS011;25881;47.462;19.304;2024-01-30T01:29:14;20.95;;;12.25;;
40162;SDS011;25881;47.462;19.304;2024-01-30T01:31:40;21.30;;;12.20;;
40162;SDS011;25881;47.462;19.304;2024-01-30T01:34:12;19.23;;;11.55;;
40162;SDS011;25881;47.462;19.304;2024-01-30T01:36:37;22.40;;;11.80;;
40162;SDS011;25881;47.462;19.304;2024-01-30T01:39:04;18.00;;;11.55;;
40162;SDS011;25881;47.462;19.304;2024-01-30T01:41:30;18.00;;;11.50;;
40162;SDS011;25881;47.462;19.304;2024-01-30T01:43:56;19.80;;;11.23;;
40162;SDS011;25881;47.462;19.304;2024-01-30T01:46:21;21.90;;;12.40;;
40162;SDS011;25881;47.462;19.304;2024-01-30T01:48:46;20.10;;;11.15;;
40162;SDS011;25881;47.462;19.304;2024-01-30T01:51:12;18.88;;;10.40;;
40162;SDS011;25881;47.462;19.304;2024-01-30T01:53:38;19.67;;;11.05;;
40162;SDS011;25881;47.462;19.304;2024-01-30T01:56:03;20.40;;;11.25;;
40162;SDS011;25881;47.462;19.304;2024-01-30T01:58:28;24.77;;;12.48;;
40162;SDS011;25881;47.462;19.304;2024-01-30T02:00:54;24.75;;;11.75;;
40162;SDS011;25881;47.462;19.304;2024-01-30T02:03:20;21.73;;;12.27;;
40162;SDS011;25881;47.462;19.304;2024-01-30T02:05:47;20.42;;;12.32;;
40162;SDS011;25881;47.462;19.304;2024-01-30T02:08:12;22.13;;;11.85;;
40162;SDS011;25881;47.462;19.304;2024-01-30T02:10:37;24.93;;;12.67;;
40162;SDS011;25881;47.462;19.304;2024-01-30T02:13:03;22.95;;;12.40;;
40162;SDS011;25881;47.462;19.304;2024-01-30T02:15:29;23.35;;;13.30;;
40162;SDS011;25881;47.462;19.304;2024-01-30T02:17:54;21.77;;;12.97;;
40162;SDS011;25881;47.462;19.304;2024-01-30T02:20:20;20.95;;;13.05;;
40162;SDS011;25881;47.462;19.304;2024-01-30T02:22:46;25.25;;;14.57;;
40162;SDS011;25881;47.462;19.304;2024-01-30T02:25:12;23.98;;;13.63;;
40162;SDS011;25881;47.462;19.304;2024-01-30T02:27:37;24.52;;;12.82;;
40162;SDS011;25881;47.462;19.304;2024-01-30T02:30:03;22.42;;;13.63;;
40162;SDS011;25881;47.462;19.304;2024-01-30T02:32:28;24.40;;;13.70;;
40162;SDS011;25881;47.462;19.304;2024-01-30T02:34:54;23.77;;;13.03;;
40162;SDS011;25881;47.462;19.304;2024-01-30T02:37:19;22.17;;;12.17;;
40162;SDS011;25881;47.462;19.304;2024-01-30T02:39:45;22.90;;;11.57;;
40162;SDS011;25881;47.462;19.304;2024-01-30T02:42:10;20.23;;;12.00;;
40162;SDS011;25881;47.462;19.304;2024-01-30T02:44:35;22.07;;;12.20;;
40162;SDS011;25881;47.462;19.304;2024-01-30T02:47:00;21.83;;;13.90;;
40162;SDS011;25881;47.462;19.304;2024-01-30T02:49:26;22.02;;;12.85;;
40162;SDS011;25881;47.462;19.304;2024-01-30T02:51:52;25.23;;;13.60;;
40162;SDS011;25881;47.462;19.304;2024-01-30T02:54:18;21.80;;;11.82;;
40162;SDS011;25881;47.462;19.304;2024-01-30T02:56:43;21.07;;;11.93;;
40162;SDS011;25881;47.462;19.304;2024-01-30T02:59:09;23.10;;;12.33;;
40162;SDS011;25881;47.462;19.304;2024-01-30T03:01:41;21.07;;;12.30;;
40162;SDS011;25881;47.462;19.304;2024-01-30T03:04:07;19.05;;;12.60;;
40162;SDS011;25881;47.462;19.304;2024-01-30T03:06:32;18.98;;;11.73;;
40162;SDS011;25881;47.462;19.304;2024-01-30T03:08:58;21.92;;;13.20;;
40162;SDS011;25881;47.462;19.304;2024-01-30T03:11:23;25.77;;;13.47;;
40162;SDS011;25881;47.462;19.304;2024-01-30T03:13:48;23.87;;;12.17;;
40162;SDS011;25881;47.462;19.304;2024-01-30T03:16:14;23.13;;;14.27;;
40162;SDS011;25881;47.462;19.304;2024-01-30T03:18:40;24.77;;;14.40;;
40162;SDS011;25881;47.462;19.304;2024-01-30T03:21:05;23.53;;;13.40;;
40162;SDS011;25881;47.462;19.304;2024-01-30T03:23:30;26.13;;;13.50;;
40162;SDS011;25881;47.462;19.304;2024-01-30T03:25:57;24.05;;;14.02;;
40162;SDS011;25881;47.462;19.304;2024-01-30T03:28:22;23.33;;;13.02;;
40162;SDS011;25881;47.462;19.304;2024-01-30T03:30:47;23.75;;;14.00;;
40162;SDS011;25881;47.462;19.304;2024-01-30T03:33:13;32.25;;;18.23;;
40162;SDS011;25881;47.462;19.304;2024-01-30T03:35:38;40.90;;;22.63;;
40162;SDS011;25881;47.462;19.304;2024-01-30T03:38:04;39.53;;;20.10;;
40162;SDS011;25881;47.462;19.304;2024-01-30T03:40:29;28.77;;;16.95;;
40162;SDS011;25881;47.462;19.304;2024-01-30T03:42:54;23.93;;;14.30;;
40162;SDS011;25881;47.462;19.304;2024-01-30T03:45:20;25.35;;;13.63;;
40162;SDS011;25881;47.462;19.304;2024-01-30T03:47:46;21.77;;;13.55;;
40162;SDS011;25881;47.462;19.304;2024-01-30T03:50:11;23.83;;;14.30;;
40162;SDS011;25881;47.462;19.304;2024-01-30T03:52:37;25.13;;;14.25;;
40162;SDS011;25881;47.462;19.304;2024-01-30T03:55:02;23.47;;;14.10;;
40162;SDS011;25881;47.462;19.304;2024-01-30T03:57:27;21.77;;;13.00;;
40162;SDS011;25881;47.462;19.304;2024-01-30T03:59:52;23.60;;;13.03;;
40162;SDS011;25881;47.462;19.304;2024-01-30T04:02:18;24.00;;;13.98;;
40162;SDS011;25881;47.462;19.304;2024-01-30T04:04:44;27.35;;;15.40;;
40162;SDS011;25881;47.462;19.304;2024-01-30T04:07:09;25.70;;;14.45;;
40162;SDS011;25881;47.462;19.304;2024-01-30T04:09:34;23.85;;;13.93;;
40162;SDS011;25881;47.462;19.304;2024-01-30T04:12:00;27.90;;;15.07;;
40162;SDS011;25881;47.462;19.304;2024-01-30T04:14:27;22.92;;;14.10;;
40162;SDS011;25881;47.462;19.304;2024-01-30T04:16:53;27.70;;;15.63;;
40162;SDS011;25881;47.462;19.304;2024-01-30T04:19:18;22.87;;;14.47;;
40162;SDS011;25881;47.462;19.304;2024-01-30T04:21:43;24.40;;;13.77;;
40162;SDS011;25881;47.462;19.304;2024-01-30T04:24:08;25.85;;;14.27;;
40162;SDS011;25881;47.462;19.304;2024-01-30T04:26:34;26.85;;;14.38;;
40162;SDS011;25881;47.462;19.304;2024-01-30T04:29:00;25.75;;;14.48;;
40162;SDS011;25881;47.462;19.304;2024-01-30T04:31:25;24.63;;;13.37;;
40162;SDS011;25881;47.462;19.304;2024-01-30T04:33:50;23.15;;;14.30;;
40162;SDS011;25881;47.462;19.304;2024-01-30T04:36:16;26.83;;;14.32;;
40162;SDS011;25881;47.462;19.304;2024-01-30T04:38:42;22.52;;;13.55;;
40162;SDS011;25881;47.462;19.304;2024-01-30T04:41:07;23.35;;;14.05;;
40162;SDS011;25881;47.462;19.304;2024-01-30T04:43:32;22.70;;;13.90;;
40162;SDS011;25881;47.462;19.304;2024-01-30T04:45:58;26.08;;;14.15;;
40162;SDS011;25881;47.462;19.304;2024-01-30T04:48:24;23.55;;;14.07;;
40162;SDS011;25881;47.462;19.304;2024-01-30T04:50:49;26.65;;;15.20;;
40162;SDS011;25881;47.462;19.304;2024-01-30T04:53:15;28.10;;;14.65;;
40162;SDS011;25881;47.462;19.304;2024-01-30T04:55:40;27.47;;;14.40;;
40162;SDS011;25881;47.462;19.304;2024-01-30T04:58:06;31.48;;;16.75;;
40162;SDS011;25881;47.462;19.304;2024-01-30T05:00:31;30.03;;;15.13;;
40162;SDS011;25881;47.462;19.304;2024-01-30T05:02:56;31.00;;;15.60;;
40162;SDS011;25881;47.462;19.304;2024-01-30T05:05:21;33.17;;;15.52;;
40162;SDS011;25881;47.462;19.304;2024-01-30T05:07:47;30.67;;;15.43;;
40162;SDS011;25881;47.462;19.304;2024-01-30T05:10:13;33.20;;;14.48;;
40162;SDS011;25881;47.462;19.304;2024-01-30T05:12:39;28.60;;;15.50;;
40162;SDS011;25881;47.462;19.304;2024-01-30T05:15:05;33.17;;;15.93;;
40162;SDS011;25881;47.462;19.304;2024-01-30T05:17:30;31.45;;;15.68;;
40162;SDS011;25881;47.462;19.304;2024-01-30T05:19:55;28.65;;;15.07;;
40162;SDS011;25881;47.462;19.304;2024-01-30T05:22:20;24.00;;;13.97;;
40162;SDS011;25881;47.462;19.304;2024-01-30T05:24:46;31.33;;;16.20;;
40162;SDS011;25881;47.462;19.304;2024-01-30T05:27:11;36.25;;;21.00;;
40162;SDS011;25881;47.462;19.304;2024-01-30T05:29:41;55.65;;;32.08;;
40162;SDS011;25881;47.462;19.304;2024-01-30T05:32:06;75.40;;;42.13;;
40162;SDS011;25881;47.462;19.304;2024-01-30T05:34:31;86.03;;;45.83;;
40162;SDS011;25881;47.462;19.304;2024-01-30T05:36:57;88.32;;;44.85;;
40162;SDS011;25881;47.462;19.304;2024-01-30T05:39:22;76.53;;;41.87;;
40162;SDS011;25881;47.462;19.304;2024-01-30T05:41:48;62.97;;;38.75;;
40162;SDS011;25881;47.462;19.304;2024-01-30T05:44:13;49.83;;;30.40;;
40162;SDS011;25881;47.462;19.304;2024-01-30T05:46:39;46.15;;;24.75;;
40162;SDS011;25881;47.462;19.304;2024-01-30T05:49:04;36.25;;;20.67;;
40162;SDS011;25881;47.462;19.304;2024-01-30T05:51:29;31.20;;;19.05;;
40162;SDS011;25881;47.462;19.304;2024-01-30T05:53:55;37.80;;;22.38;;
40162;SDS011;25881;47.462;19.304;2024-01-30T05:56:20;38.00;;;22.45;;
40162;SDS011;25881;47.462;19.304;2024-01-30T05:58:46;37.90;;;22.37;;
40162;SDS011;25881;47.462;19.304;2024-01-30T06:01:11;43.72;;;25.05;;
40162;SDS011;25881;47.462;19.304;2024-01-30T06:03:36;41.20;;;22.80;;
40162;SDS011;25881;47.462;19.304;2024-01-30T06:06:02;45.08;;;23.60;;
40162;SDS011;25881;47.462;19.304;2024-01-30T06:08:27;43.97;;;22.45;;
40162;SDS011;25881;47.462;19.304;2024-01-30T06:10:53;43.05;;;20.77;;
40162;SDS011;25881;47.462;19.304;2024-01-30T06:13:18;40.13;;;21.80;;
40162;SDS011;25881;47.462;19.304;2024-01-30T06:15:43;38.28;;;19.38;;
40162;SDS011;25881;47.462;19.304;2024-01-30T06:18:09;32.80;;;18.03;;
40162;SDS011;25881;47.462;19.304;2024-01-30T06:20:34;33.15;;;18.30;;
40162;SDS011;25881;47.462;19.304;2024-01-30T06:23:00;35.35;;;18.23;;
40162;SDS011;25881;47.462;19.304;2024-01-30T06:25:26;38.63;;;18.07;;
40162;SDS011;25881;47.462;19.304;2024-01-30T06:27:51;37.80;;;19.67;;
40162;SDS011;25881;47.462;19.304;2024-01-30T06:30:16;39.60;;;19.40;;
40162;SDS011;25881;47.462;19.304;2024-01-30T06:32:42;32.53;;;18.13;;
40162;SDS011;25881;47.462;19.304;2024-01-30T06:35:08;40.42;;;20.73;;
40162;SDS011;25881;47.462;19.304;2024-01-30T06:37:33;33.95;;;19.88;;
40162;SDS011;25881;47.462;19.304;2024-01-30T06:39:58;36.60;;;20.40;;
40162;SDS011;25881;47.462;19.304;2024-01-30T06:42:24;40.58;;;20.48;;
40162;SDS011;25881;47.462;19.304;2024-01-30T06:44:49;33.60;;;20.05;;
40162;SDS011;25881;47.462;19.304;2024-01-30T06:47:15;44.92;;;23.67;;
40162;SDS011;25881;47.462;19.304;2024-01-30T06:49:41;62.30;;;31.67;;
40162;SDS011;25881;47.462;19.304;2024-01-30T06:52:08;65.60;;;33.67;;
40162;SDS011;25881;47.462;19.304;2024-01-30T06:54:34;68.28;;;34.53;;
40162;SDS011;25881;47.462;19.304;2024-01-30T06:56:59;69.75;;;35.63;;
40162;SDS011;25881;47.462;19.304;2024-01-30T06:59:25;69.43;;;36.70;;
40162;SDS011;25881;47.462;19.304;2024-01-30T07:01:50;68.70;;;37.30;;
40162;SDS011;25881;47.462;19.304;2024-01-30T07:04:16;70.57;;;34.95;;
40162;SDS011;25881;47.462;19.304;2024-01-30T07:06:41;55.90;;;29.98;;
40162;SDS011;25881;47.462;19.304;2024-01-30T07:09:06;48.45;;;27.48;;
40162;SDS011;25881;47.462;19.304;2024-01-30T07:11:32;49.85;;;27.23;;
40162;SDS011;25881;47.462;19.304;2024-01-30T07:13:57;40.88;;;24.00;;
40162;SDS011;25881;47.462;19.304;2024-01-30T07:16:23;44.15;;;23.10;;
40162;SDS011;25881;47.462;19.304;2024-01-30T07:18:48;35.35;;;21.17;;
40162;SDS011;25881;47.462;19.304;2024-01-30T07:21:14;35.63;;;20.48;;
40162;SDS011;25881;47.462;19.304;2024-01-30T07:23:40;33.63;;;19.27;;
40162;SDS011;25881;47.462;19.304;2024-01-30T07:26:06;35.53;;;19.73;;
40162;SDS011;25881;47.462;19.304;2024-01-30T07:30:59;31.42;;;17.10;;
40162;SDS011;25881;47.462;19.304;2024-01-30T07:33:25;36.60;;;17.15;;
40162;SDS011;25881;47.462;19.304;2024-01-30T07:35:52;30.20;;;16.43;;
40162;SDS011;25881;47.462;19.304;2024-01-30T07:38:17;28.23;;;16.45;;
40162;SDS011;25881;47.462;19.304;2024-01-30T07:40:42;28.08;;;16.92;;
40162;SDS011;25881;47.462;19.304;2024-01-30T07:43:08;32.10;;;17.67;;
40162;SDS011;25881;47.462;19.304;2024-01-30T07:45:33;28.30;;;16.60;;
40162;SDS011;25881;47.462;19.304;2024-01-30T07:47:59;34.17;;;17.70;;
40162;SDS011;25881;47.462;19.304;2024-01-30T07:50:25;35.40;;;18.65;;
40162;SDS011;25881;47.462;19.304;2024-01-30T07:52:50;32.05;;;18.13;;
40162;SDS011;25881;47.462;19.304;2024-01-30T07:55:19;32.72;;;18.90;;
40162;SDS011;25881;47.462;19.304;2024-01-30T07:57:46;33.65;;;19.45;;
40162;SDS011;25881;47.462;19.304;2024-01-30T08:00:11;32.15;;;19.33;;
40162;SDS011;25881;47.462;19.304;2024-01-30T08:02:36;37.92;;;21.27;;
40162;SDS011;25881;47.462;19.304;2024-01-30T08:05:02;30.47;;;18.27;;
40162;SDS011;25881;47.462;19.304;2024-01-30T08:07:28;34.30;;;19.67;;
40162;SDS011;25881;47.462;19.304;2024-01-30T08:09:54;36.50;;;19.90;;
40162;SDS011;25881;47.462;19.304;2024-01-30T08:12:20;36.40;;;20.00;;
40162;SDS011;25881;47.462;19.304;2024-01-30T08:14:45;36.80;;;19.50;;
40162;SDS011;25881;47.462;19.304;2024-01-30T08:17:10;41.67;;;21.30;;
40162;SDS011;25881;47.462;19.304;2024-01-30T08:19:36;39.17;;;21.73;;
40162;SDS011;25881;47.462;19.304;2024-01-30T08:22:01;34.70;;;20.23;;
40162;SDS011;25881;47.462;19.304;2024-01-30T08:24:26;31.60;;;19.10;;
40162;SDS011;25881;47.462;19.304;2024-01-30T08:26:51;34.47;;;20.03;;
40162;SDS011;25881;47.462;19.304;2024-01-30T08:29:17;38.57;;;20.87;;
40162;SDS011;25881;47.462;19.304;2024-01-30T08:31:42;35.00;;;21.52;;
40162;SDS011;25881;47.462;19.304;2024-01-30T08:34:07;37.37;;;19.67;;
40162;SDS011;25881;47.462;19.304;2024-01-30T08:36:32;44.53;;;22.07;;
40162;SDS011;25881;47.462;19.304;2024-01-30T08:38:58;35.97;;;21.13;;
40162;SDS011;25881;47.462;19.304;2024-01-30T08:41:23;35.63;;;22.75;;
40162;SDS011;25881;47.462;19.304;2024-01-30T08:43:48;38.25;;;21.42;;
40162;SDS011;25881;47.462;19.304;2024-01-30T08:46:17;38.53;;;22.65;;
40162;SDS011;25881;47.462;19.304;2024-01-30T08:48:42;43.58;;;24.42;;
40162;SDS011;25881;47.462;19.304;2024-01-30T08:51:07;42.85;;;23.83;;
40162;SDS011;25881;47.462;19.304;2024-01-30T08:53:33;38.30;;;23.23;;
40162;SDS011;25881;47.462;19.304;2024-01-30T08:55:59;42.05;;;22.85;;
40162;SDS011;25881;47.462;19.304;2024-01-30T08:58:24;37.50;;;21.70;;
40162;SDS011;25881;47.462;19.304;2024-01-30T09:00:49;38.33;;;22.43;;
40162;SDS011;25881;47.462;19.304;2024-01-30T09:03:16;35.80;;;20.58;;
40162;SDS011;25881;47.462;19.304;2024-01-30T09:05:41;32.53;;;18.98;;
40162;SDS011;25881;47.462;19.304;2024-01-30T09:08:08;35.75;;;19.17;;
40162;SDS011;25881;47.462;19.304;2024-01-30T09:10:33;37.50;;;20.10;;
40162;SDS011;25881;47.462;19.304;2024-01-30T09:12:58;35.63;;;20.30;;
40162;SDS011;25881;47.462;19.304;2024-01-30T09:15:23;32.63;;;18.63;;
40162;SDS011;25881;47.462;19.304;2024-01-30T09:17:49;29.92;;;17.52;;
40162;SDS011;25881;47.462;19.304;2024-01-30T09:20:15;33.58;;;18.65;;
40162;SDS011;25881;47.462;19.304;2024-01-30T09:22:41;33.50;;;19.10;;
40162;SDS011;25881;47.462;19.304;2024-01-30T09:25:06;31.25;;;18.88;;
40162;SDS011;25881;47.462;19.304;2024-01-30T09:27:32;36.50;;;21.02;;
40162;SDS011;25881;47.462;19.304;2024-01-30T09:29:57;34.78;;;19.27;;
40162;SDS011;25881;47.462;19.304;2024-01-30T09:32:22;35.65;;;21.48;;
40162;SDS011;25881;47.462;19.304;2024-01-30T09:34:48;37.97;;;20.85;;
40162;SDS011;25881;47.462;19.304;2024-01-30T09:37:13;37.53;;;22.03;;
40162;SDS011;25881;47.462;19.304;2024-01-30T09:39:40;33.78;;;20.25;;
40162;SDS011;25881;47.462;19.304;2024-01-30T09:44:51;38.45;;;21.00;;
40162;SDS011;25881;47.462;19.304;2024-01-30T09:47:17;35.90;;;20.35;;
40162;SDS011;25881;47.462;19.304;2024-01-30T09:49:43;32.08;;;19.00;;
40162;SDS011;25881;47.462;19.304;2024-01-30T09:52:09;33.35;;;20.05;;
40162;SDS011;25881;47.462;19.304;2024-01-30T09:54:36;33.67;;;20.25;;
40162;SDS011;25881;47.462;19.304;2024-01-30T09:57:03;33.78;;;18.13;;
40162;SDS011;25881;47.462;19.304;2024-01-30T09:59:29;31.98;;;19.23;;
40162;SDS011;25881;47.462;19.304;2024-01-30T10:01:54;37.80;;;21.25;;
40162;SDS011;25881;47.462;19.304;2024-01-30T10:04:20;42.78;;;23.48;;
40162;SDS011;25881;47.462;19.304;2024-01-30T10:06:45;36.70;;;22.50;;
40162;SDS011;25881;47.462;19.304;2024-01-30T10:09:11;41.55;;;22.75;;
40162;SDS011;25881;47.462;19.304;2024-01-30T10:11:37;42.57;;;24.90;;
40162;SDS011;25881;47.462;19.304;2024-01-30T10:14:02;42.75;;;25.00;;
40162;SDS011;25881;47.462;19.304;2024-01-30T10:16:28;45.40;;;24.17;;
40162;SDS011;25881;47.462;19.304;2024-01-30T10:18:53;48.72;;;25.63;;
40162;SDS011;25881;47.462;19.304;2024-01-30T10:21:18;41.58;;;24.70;;
40162;SDS011;25881;47.462;19.304;2024-01-30T10:23:44;44.83;;;25.83;;
40162;SDS011;25881;47.462;19.304;2024-01-30T10:26:12;44.03;;;26.20;;
40162;SDS011;25881;47.462;19.304;2024-01-30T10:28:37;40.30;;;24.90;;
40162;SDS011;25881;47.462;19.304;2024-01-30T10:31:03;44.23;;;24.03;;
40162;SDS011;25881;47.462;19.304;2024-01-30T10:33:31;37.17;;;24.65;;
40162;SDS011;25881;47.462;19.304;2024-01-30T10:36:03;31.85;;;20.63;;
40162;SDS011;25881;47.462;19.304;2024-01-30T10:38:29;40.92;;;22.50;;
40162;SDS011;25881;47.462;19.304;2024-01-30T10:41:04;38.22;;;21.48;;
40162;SDS011;25881;47.462;19.304;2024-01-30T10:43:31;35.80;;;20.92;;
40162;SDS011;25881;47.462;19.304;2024-01-30T10:48:40;35.95;;;21.23;;
40162;SDS011;25881;47.462;19.304;2024-01-30T10:51:09;33.75;;;20.95;;
40162;SDS011;25881;47.462;19.304;2024-01-30T10:53:35;41.75;;;22.98;;
40162;SDS011;25881;47.462;19.304;2024-01-30T10:56:02;48.22;;;25.35;;
40162;SDS011;25881;47.462;19.304;2024-01-30T10:58:28;38.03;;;21.60;;
40162;SDS011;25881;47.462;19.304;2024-01-30T11:00:54;34.43;;;21.23;;
40162;SDS011;25881;47.462;19.304;2024-01-30T11:03:19;34.72;;;21.45;;
40162;SDS011;25881;47.462;19.304;2024-01-30T11:05:49;41.15;;;25.30;;
40162;SDS011;25881;47.462;19.304;2024-01-30T11:08:22;41.33;;;23.45;;
40162;SDS011;25881;47.462;19.304;2024-01-30T11:10:47;40.58;;;23.23;;
40162;SDS011;25881;47.462;19.304;2024-01-30T11:13:13;36.28;;;22.42;;
40162;SDS011;25881;47.462;19.304;2024-01-30T11:15:39;40.13;;;23.15;;
40162;SDS011;25881;47.462;19.304;2024-01-30T11:18:05;36.67;;;21.95;;
40162;SDS011;25881;47.462;19.304;2024-01-30T11:20:31;32.83;;;20.00;;
40162;SDS011;25881;47.462;19.304;2024-01-30T11:22:56;31.85;;;20.77;;
40162;SDS011;25881;47.462;19.304;2024-01-30T11:25:22;35.97;;;22.48;;
40162;SDS011;25881;47.462;19.304;2024-01-30T11:27:52;35.55;;;21.77;;
40162;SDS011;25881;47.462;19.304;2024-01-30T11:30:30;37.47;;;23.77;;
40162;SDS011;25881;47.462;19.304;2024-01-30T11:33:00;36.47;;;21.63;;
40162;SDS011;25881;47.462;19.304;2024-01-30T11:35:25;34.53;;;19.88;;
40162;SDS011;25881;47.462;19.304;2024-01-30T11:37:52;28.67;;;19.27;;
40162;SDS011;25881;47.462;19.304;2024-01-30T11:40:17;34.17;;;18.83;;
40162;SDS011;25881;47.462;19.304;2024-01-30T11:42:44;32.53;;;19.83;;
40162;SDS011;25881;47.462;19.304;2024-01-30T11:45:10;28.48;;;17.40;;
40162;SDS011;25881;47.462;19.304;2024-01-30T11:47:36;26.65;;;17.33;;
40162;SDS011;25881;47.462;19.304;2024-01-30T11:50:03;32.50;;;18.48;;
40162;SDS011;25881;47.462;19.304;2024-01-30T11:52:28;31.35;;;19.67;;
40162;SDS011;25881;47.462;19.304;2024-01-30T11:54:54;32.08;;;19.90;;
40162;SDS011;25881;47.462;19.304;2024-01-30T11:57:19;31.35;;;18.05;;
40162;SDS011;25881;47.462;19.304;2024-01-30T11:59:45;29.25;;;19.55;;
40162;SDS011;25881;47.462;19.304;2024-01-30T12:02:14;30.97;;;19.23;;
40162;SDS011;25881;47.462;19.304;2024-01-30T12:04:40;39.63;;;22.52;;
40162;SDS011;25881;47.462;19.304;2024-01-30T12:07:05;35.80;;;23.73;;
40162;SDS011;25881;47.462;19.304;2024-01-30T12:09:30;36.33;;;24.38;;
40162;SDS011;25881;47.462;19.304;2024-01-30T12:11:56;41.08;;;24.83;;
40162;SDS011;25881;47.462;19.304;2024-01-30T12:14:22;39.10;;;24.88;;
40162;SDS011;25881;47.462;19.304;2024-01-30T12:16:48;43.15;;;25.13;;
40162;SDS011;25881;47.462;19.304;2024-01-30T12:19:21;40.22;;;25.60;;
40162;SDS011;25881;47.462;19.304;2024-01-30T12:21:46;41.90;;;25.88;;
40162;SDS011;25881;47.462;19.304;2024-01-30T12:24:12;41.07;;;24.47;;
40162;SDS011;25881;47.462;19.304;2024-01-30T12:26:37;35.00;;;20.90;;
40162;SDS011;25881;47.462;19.304;2024-01-30T12:29:03;31.70;;;16.60;;
40162;SDS011;25881;47.462;19.304;2024-01-30T12:31:31;27.15;;;16.40;;
40162;SDS011;25881;47.462;19.304;2024-01-30T12:33:59;29.83;;;16.98;;
40162;SDS011;25881;47.462;19.304;2024-01-30T12:36:24;38.40;;;23.98;;
40162;SDS011;25881;47.462;19.304;2024-01-30T12:38:49;31.13;;;21.58;;
40162;SDS011;25881;47.462;19.304;2024-01-30T12:41:15;36.25;;;22.95;;
40162;SDS011;25881;47.462;19.304;2024-01-30T12:43:41;37.53;;;24.13;;
40162;SDS011;25881;47.462;19.304;2024-01-30T12:46:07;40.45;;;22.80;;
40162;SDS011;25881;47.462;19.304;2024-01-30T12:48:32;35.75;;;21.05;;
40162;SDS011;25881;47.462;19.304;2024-01-30T12:50:58;31.98;;;21.27;;
40162;SDS011;25881;47.462;19.304;2024-01-30T12:53:23;30.30;;;20.17;;
40162;SDS011;25881;47.462;19.304;2024-01-30T12:55:48;30.50;;;18.57;;
40162;SDS011;25881;47.462;19.304;2024-01-30T12:58:15;31.23;;;19.92;;
40162;SDS011;25881;47.462;19.304;2024-01-30T13:00:40;32.40;;;21.10;;
40162;SDS011;25881;47.462;19.304;2024-01-30T13:03:07;32.60;;;20.98;;
40162;SDS011;25881;47.462;19.304;2024-01-30T13:05:33;33.50;;;19.92;;
40162;SDS011;25881;47.462;19.304;2024-01-30T13:07:59;32.55;;;19.60;;
40162;SDS011;25881;47.462;19.304;2024-01-30T13:10:24;32.63;;;19.63;;
40162;SDS011;25881;47.462;19.304;2024-01-30T13:12:49;34.33;;;20.83;;
40162;SDS011;25881;47.462;19.304;2024-01-30T13:15:15;29.63;;;19.93;;
40162;SDS011;25881;47.462;19.304;2024-01-30T13:17:40;34.60;;;21.10;;
40162;SDS011;25881;47.462;19.304;2024-01-30T13:20:07;30.08;;;19.40;;
40162;SDS011;25881;47.462;19.304;2024-01-30T13:22:33;32.13;;;19.92;;
40162;SDS011;25881;47.462;19.304;2024-01-30T13:24:59;28.88;;;18.40;;
40162;SDS011;25881;47.462;19.304;2024-01-30T13:27:24;29.80;;;17.50;;
40162;SDS011;25881;47.462;19.304;2024-01-30T13:29:50;27.88;;;17.48;;
40162;SDS011;25881;47.462;19.304;2024-01-30T13:32:15;28.60;;;16.90;;
40162;SDS011;25881;47.462;19.304;2024-01-30T13:34:40;24.55;;;18.02;;
40162;SDS011;25881;47.462;19.304;2024-01-30T13:37:06;31.40;;;19.15;;
40162;SDS011;25881;47.462;19.304;2024-01-30T13:39:31;27.73;;;19.10;;
40162;SDS011;25881;47.462;19.304;2024-01-30T13:41:57;29.37;;;18.10;;
40162;SDS011;25881;47.462;19.304;2024-01-30T13:44:22;31.00;;;19.90;;
40162;SDS011;25881;47.462;19.304;2024-01-30T13:46:47;29.67;;;19.23;;
40162;SDS011;25881;47.462;19.304;2024-01-30T13:49:13;31.90;;;18.40;;
40162;SDS011;25881;47.462;19.304;2024-01-30T13:51:38;28.52;;;17.35;;
40162;SDS011;25881;47.462;19.304;2024-01-30T13:54:04;34.80;;;18.83;;
40162;SDS011;25881;47.462;19.304;2024-01-30T13:56:29;28.40;;;17.35;;
40162;SDS011;25881;47.462;19.304;2024-01-30T13:58:55;15.93;;;10.35;;
40162;SDS011;25881;47.462;19.304;2024-01-30T14:01:21;16.38;;;10.38;;
40162;SDS011;25881;47.462;19.304;2024-01-30T14:03:47;16.27;;;9.00;;
40162;SDS011;25881;47.462;19.304;2024-01-30T14:06:12;16.93;;;10.37;;
40162;SDS011;25881;47.462;19.304;2024-01-30T14:08:37;13.60;;;8.93;;